Wilmington, OH

3:19 PM EDT on April 28, 2015 (GMT -0400)
Little House On The Prairie | | Change Station
CLOSE
Current Station
Personal Weather Station
Location: Wilmington, OH
Elevation: 1043 ft
Nearby Weather Stations

Elev 1043 ft 39.45 °N, 83.82 °W | Updated 10 seconds ago

Clear
Clear
66.2 °F
Feels Like 66.2 °F
N
2.7
Wind Variable Wind from East
Gusts 4.2 mph

Today
High -- | Low -- °F
--% Chance of Precip.
Yesterday
High -- | Low -- °F
Precip. -- in
6:40 AM 8:25 PM
Waxing Gibbous, 75% visible
Pressure 30.06 in
Visibility 10.0 miles
Clouds Clear
Dew Point 42 °F
Humidity 42%
Rainfall 0.00 in
Snow Depth Not available.
UV 10 out of 12
Pollen 10.10 out of 12
Air Quality Not available.
Flu Activity Regional
METAR KILN 281854Z AUTO 36006KT 10SM CLR 14/02 A3003 RMK AO2 SLP180 T01440022

More Conditions Fewer Conditions

Pressure 30.06 in
Visibility 10.0 miles
Clouds Clear
Dew Point 42 °F
Humidity 42%
Rainfall 0.00 in
Snow Depth Not available.
UV 10 out of 12
Pollen 10.10 out of 12
Air Quality Not available.
Flu Activity Regional
METAR KILN 281854Z AUTO 36006KT 10SM CLR 14/02 A3003 RMK AO2 SLP180 T01440022

More Conditions Fewer Conditions

10-Day Weather Forecast

Almanac

Astronomy

Apr. 28, 2015 Rise Set
Actual Time
Civil Twilight
Nautical Twilight
Astronomical Twilight
Moon
Length of Visible Light
Length of Day
Tomorrow will be .
, % of the Moon is Illuminated

Today's Extremes

State Highs State Lows

Community

WunderPhotos

Upload Photos

1,817,733 photos uploaded!

WunderBlogs® & News

Nearby

Air Quality

  Air Quality AQ Index Pollutant
Not available.

Snow Depth

Station Depth Elevation

Earthquake Activity

City Distance Mag. Time & Date
Minimum magnitude displayed is 2.5.

Coastal Water Temperatures

Place Temperature

Stations

Nearby Weather Stations

Station Location Temp. Windchill Dew Point Humidity Wind Precip. Elev Updated Type